UAE819 OMDB-OERK
Flight info
| Callsign | UAE819 |
|---|---|
| Flight time | 1h 34m |
| Altitude | 34000 |
| Route | ANVIX7F ANVIX R401 GIDIS G783 ELUDA/N0498F380 G783 RIGIL M628 PEKEM/N0497F280 M628 AMBAG M321 NAGUB NAGUB1A |
| Aircraft | B77W/H-V/N |
Departure
| Time | 2026-05-06 23:26 |
|---|---|
| Airport | Dubai International Airport (OMDB) |
Arrival
| Time | 2026-05-07 01:00 |
|---|---|
| Airport | King Khalid International Airport (OERK) |
| Time | Latitude | Longitude | Altitude | Speed | Heading |
|---|---|---|---|---|---|
| 2026-05-06 22:53 | 25.24556 | 55.36486 | 26 ft | 0 kts | 31° |
| 2026-05-06 23:10 | 25.24539 | 55.36474 | 32 ft | 4 kts | 31° |
| 2026-05-06 23:11 | 25.24518 | 55.36459 | 32 ft | 4 kts | 43° |
| 2026-05-06 23:11 | 25.24504 | 55.36438 | 32 ft | 4 kts | 74° |
| 2026-05-06 23:11 | 25.24503 | 55.36412 | 32 ft | 4 kts | 111° |
| 2026-05-06 23:11 | 25.24508 | 55.36399 | 32 ft | 0 kts | 122° |
| 2026-05-06 23:14 | 25.24505 | 55.36404 | 32 ft | 4 kts | 122° |
| 2026-05-06 23:14 | 25.24466 | 55.36476 | 29 ft | 16 kts | 117° |
| 2026-05-06 23:15 | 25.24459 | 55.36596 | 27 ft | 16 kts | 72° |
| 2026-05-06 23:15 | 25.24531 | 55.36689 | 29 ft | 16 kts | 34° |
| 2026-05-06 23:15 | 25.24622 | 55.36751 | 26 ft | 15 kts | 31° |
| 2026-05-06 23:15 | 25.24676 | 55.36787 | 26 ft | 6 kts | 31° |
| 2026-05-06 23:16 | 25.24717 | 55.36814 | 27 ft | 7 kts | 31° |
| 2026-05-06 23:16 | 25.24764 | 55.36846 | 27 ft | 8 kts | 32° |
| 2026-05-06 23:16 | 25.24821 | 55.36860 | 28 ft | 9 kts | 344° |
| 2026-05-06 23:16 | 25.24859 | 55.36808 | 28 ft | 9 kts | 290° |
| 2026-05-06 23:17 | 25.24875 | 55.36726 | 27 ft | 14 kts | 285° |
| 2026-05-06 23:17 | 25.24928 | 55.36603 | 27 ft | 19 kts | 301° |
| 2026-05-06 23:17 | 25.24998 | 55.36477 | 27 ft | 19 kts | 302° |
| 2026-05-06 23:17 | 25.25071 | 55.36349 | 27 ft | 20 kts | 302° |
| 2026-05-06 23:18 | 25.25143 | 55.36220 | 27 ft | 20 kts | 302° |
| 2026-05-06 23:18 | 25.25215 | 55.36091 | 27 ft | 20 kts | 302° |
| 2026-05-06 23:18 | 25.25289 | 55.35962 | 26 ft | 20 kts | 302° |
| 2026-05-06 23:18 | 25.25361 | 55.35833 | 26 ft | 20 kts | 302° |
| 2026-05-06 23:19 | 25.25433 | 55.35704 | 29 ft | 20 kts | 301° |
| 2026-05-06 23:19 | 25.25505 | 55.35576 | 29 ft | 20 kts | 302° |
| 2026-05-06 23:19 | 25.25577 | 55.35448 | 31 ft | 20 kts | 302° |
| 2026-05-06 23:19 | 25.25650 | 55.35318 | 31 ft | 20 kts | 301° |
| 2026-05-06 23:20 | 25.25737 | 55.35207 | 31 ft | 20 kts | 348° |
| 2026-05-06 23:20 | 25.25861 | 55.35270 | 26 ft | 20 kts | 31° |
| 2026-05-06 23:20 | 25.25974 | 55.35357 | 27 ft | 20 kts | 51° |
| 2026-05-06 23:20 | 25.26006 | 55.35501 | 28 ft | 20 kts | 101° |
| 2026-05-06 23:21 | 25.25943 | 55.35637 | 28 ft | 20 kts | 121° |
| 2026-05-06 23:21 | 25.25870 | 55.35767 | 28 ft | 20 kts | 122° |
| 2026-05-06 23:21 | 25.25797 | 55.35897 | 28 ft | 20 kts | 122° |
| 2026-05-06 23:21 | 25.25724 | 55.36028 | 28 ft | 20 kts | 122° |
| 2026-05-06 23:22 | 25.25651 | 55.36159 | 29 ft | 20 kts | 121° |
| 2026-05-06 23:22 | 25.25577 | 55.36289 | 29 ft | 20 kts | 122° |
| 2026-05-06 23:22 | 25.25503 | 55.36420 | 29 ft | 20 kts | 122° |
| 2026-05-06 23:22 | 25.25455 | 55.36506 | 29 ft | 20 kts | 122° |
| 2026-05-06 23:23 | 25.25381 | 55.36638 | 28 ft | 21 kts | 122° |
| 2026-05-06 23:23 | 25.25305 | 55.36774 | 29 ft | 21 kts | 121° |
| 2026-05-06 23:23 | 25.25228 | 55.36910 | 29 ft | 21 kts | 122° |
| 2026-05-06 23:23 | 25.25151 | 55.37046 | 30 ft | 21 kts | 122° |
| 2026-05-06 23:24 | 25.25075 | 55.37182 | 30 ft | 21 kts | 122° |
| 2026-05-06 23:24 | 25.24997 | 55.37321 | 30 ft | 21 kts | 122° |
| 2026-05-06 23:24 | 25.24919 | 55.37460 | 30 ft | 21 kts | 122° |
| 2026-05-06 23:24 | 25.24841 | 55.37598 | 30 ft | 21 kts | 122° |
| 2026-05-06 23:25 | 25.24763 | 55.37737 | 30 ft | 21 kts | 122° |
| 2026-05-06 23:25 | 25.24685 | 55.37879 | 29 ft | 22 kts | 119° |
| 2026-05-06 23:25 | 25.24751 | 55.38004 | 33 ft | 22 kts | 21° |
| 2026-05-06 23:25 | 25.24888 | 55.37881 | 35 ft | 53 kts | 301° |
| 2026-05-06 23:26 | 25.25259 | 55.37214 | 37 ft | 146 kts | 302° |
| 2026-05-06 23:26 | 25.25859 | 55.36139 | 558 ft | 171 kts | 301° |
| 2026-05-06 23:26 | 25.26477 | 55.35007 | 1430 ft | 175 kts | 301° |
| 2026-05-06 23:26 | 25.27127 | 55.33836 | 2328 ft | 185 kts | 300° |
| 2026-05-06 23:27 | 25.27831 | 55.32558 | 2968 ft | 199 kts | 300° |
| 2026-05-06 23:27 | 25.28564 | 55.31243 | 3612 ft | 203 kts | 300° |
| 2026-05-06 23:27 | 25.29213 | 55.29871 | 4096 ft | 204 kts | 282° |
| 2026-05-06 23:27 | 25.29101 | 55.28264 | 4516 ft | 226 kts | 246° |
| 2026-05-06 23:28 | 25.28393 | 55.26676 | 5253 ft | 234 kts | 244° |
| 2026-05-06 23:28 | 25.27683 | 55.25035 | 6238 ft | 238 kts | 244° |
| 2026-05-06 23:28 | 25.26966 | 55.23356 | 7131 ft | 246 kts | 244° |
| 2026-05-06 23:28 | 25.26226 | 55.21620 | 7957 ft | 255 kts | 245° |
| 2026-05-06 23:29 | 25.25456 | 55.19814 | 8801 ft | 264 kts | 245° |
| 2026-05-06 23:29 | 25.24556 | 55.18034 | 9575 ft | 271 kts | 228° |
| 2026-05-06 23:29 | 25.22986 | 55.16865 | 10270 ft | 280 kts | 194° |
| 2026-05-06 23:29 | 25.21020 | 55.16701 | 10920 ft | 286 kts | 171° |
| 2026-05-06 23:30 | 25.19091 | 55.17343 | 11640 ft | 297 kts | 145° |
| 2026-05-06 23:30 | 25.17610 | 55.18916 | 12657 ft | 297 kts | 120° |
| 2026-05-06 23:30 | 25.16609 | 55.20917 | 13702 ft | 301 kts | 114° |
| 2026-05-06 23:30 | 25.15637 | 55.22994 | 14744 ft | 308 kts | 115° |
| 2026-05-06 23:31 | 25.14637 | 55.25112 | 15825 ft | 315 kts | 116° |
| 2026-05-06 23:31 | 25.13606 | 55.27278 | 16901 ft | 323 kts | 117° |
| 2026-05-06 23:31 | 25.12546 | 55.29496 | 17990 ft | 330 kts | 117° |
| 2026-05-06 23:31 | 25.11457 | 55.31759 | 18937 ft | 337 kts | 118° |
| 2026-05-06 23:32 | 25.10363 | 55.34078 | 19901 ft | 344 kts | 116° |
| 2026-05-06 23:32 | 25.09352 | 55.36506 | 20889 ft | 352 kts | 114° |
| 2026-05-06 23:32 | 25.08351 | 55.38997 | 21858 ft | 359 kts | 115° |
| 2026-05-06 23:32 | 25.07321 | 55.41535 | 22846 ft | 366 kts | 115° |
| 2026-05-06 23:33 | 25.06282 | 55.44173 | 23442 ft | 387 kts | 114° |
| 2026-05-06 23:33 | 25.05212 | 55.46975 | 23592 ft | 416 kts | 114° |
| 2026-05-06 23:33 | 25.04043 | 55.50043 | 23745 ft | 442 kts | 114° |
| 2026-05-06 23:33 | 25.02815 | 55.53244 | 23926 ft | 463 kts | 114° |
| 2026-05-06 23:34 | 25.01502 | 55.56537 | 24287 ft | 475 kts | 117° |
| 2026-05-06 23:34 | 24.99894 | 55.59697 | 24745 ft | 482 kts | 123° |
| 2026-05-06 23:34 | 24.98057 | 55.62868 | 25345 ft | 487 kts | 124° |
| 2026-05-06 23:34 | 24.96264 | 55.65993 | 25932 ft | 491 kts | 123° |
| 2026-05-06 23:35 | 24.94482 | 55.69230 | 26494 ft | 497 kts | 123° |
| 2026-05-06 23:35 | 24.92633 | 55.72467 | 27015 ft | 501 kts | 127° |
| 2026-05-06 23:35 | 24.90568 | 55.75583 | 27520 ft | 506 kts | 130° |
| 2026-05-06 23:35 | 24.88410 | 55.78662 | 28032 ft | 511 kts | 130° |
| 2026-05-06 23:36 | 24.86254 | 55.81793 | 28520 ft | 516 kts | 129° |
| 2026-05-06 23:36 | 24.84118 | 55.84986 | 28972 ft | 521 kts | 129° |
| 2026-05-06 23:36 | 24.81961 | 55.88199 | 29358 ft | 520 kts | 131° |
| 2026-05-06 23:36 | 24.79371 | 55.90969 | 29524 ft | 520 kts | 148° |
| 2026-05-06 23:37 | 24.76180 | 55.92773 | 29911 ft | 514 kts | 164° |
| 2026-05-06 23:37 | 24.72736 | 55.93693 | 30400 ft | 505 kts | 177° |
| 2026-05-06 23:37 | 24.69259 | 55.93752 | 30913 ft | 498 kts | 187° |
| 2026-05-06 23:37 | 24.65810 | 55.93515 | 31443 ft | 494 kts | 188° |
| 2026-05-06 23:38 | 24.62442 | 55.92918 | 31879 ft | 489 kts | 199° |
| 2026-05-06 23:38 | 24.59270 | 55.91631 | 32392 ft | 483 kts | 208° |
| 2026-05-06 23:38 | 24.56345 | 55.89858 | 32959 ft | 478 kts | 217° |
| 2026-05-06 23:38 | 24.53792 | 55.87578 | 33464 ft | 472 kts | 224° |
| 2026-05-06 23:39 | 24.51354 | 55.85151 | 33872 ft | 474 kts | 225° |
| 2026-05-06 23:39 | 24.46439 | 55.80282 | 33858 ft | 474 kts | 224° |
| 2026-05-06 23:40 | 24.41507 | 55.75529 | 33858 ft | 471 kts | 224° |
| 2026-05-06 23:40 | 24.36579 | 55.70811 | 33846 ft | 470 kts | 224° |
| 2026-05-06 23:41 | 24.31672 | 55.66073 | 33847 ft | 470 kts | 224° |
| 2026-05-06 23:41 | 24.26429 | 55.61769 | 33852 ft | 475 kts | 212° |
| 2026-05-06 23:42 | 24.20364 | 55.58818 | 33855 ft | 482 kts | 200° |
| 2026-05-06 23:42 | 24.13872 | 55.56941 | 33860 ft | 483 kts | 198° |
| 2026-05-06 23:43 | 24.07360 | 55.55086 | 33854 ft | 484 kts | 198° |
| 2026-05-06 23:43 | 24.00858 | 55.53162 | 33848 ft | 484 kts | 199° |
| 2026-05-06 23:44 | 23.94407 | 55.51241 | 33845 ft | 483 kts | 199° |
| 2026-05-06 23:44 | 23.87921 | 55.49309 | 33843 ft | 483 kts | 199° |
| 2026-05-06 23:45 | 23.81441 | 55.47383 | 33853 ft | 482 kts | 199° |
| 2026-05-06 23:45 | 23.74972 | 55.45454 | 33835 ft | 482 kts | 199° |
| 2026-05-06 23:46 | 23.68503 | 55.43526 | 33827 ft | 482 kts | 199° |
| 2026-05-06 23:46 | 23.62038 | 55.41602 | 33837 ft | 482 kts | 199° |
| 2026-05-06 23:47 | 23.55565 | 55.39679 | 33837 ft | 482 kts | 199° |
| 2026-05-06 23:47 | 23.49090 | 55.37758 | 33840 ft | 482 kts | 198° |
| 2026-05-06 23:48 | 23.42609 | 55.35851 | 33815 ft | 483 kts | 198° |
| 2026-05-06 23:48 | 23.36121 | 55.33945 | 33825 ft | 483 kts | 198° |
| 2026-05-06 23:49 | 23.29626 | 55.32037 | 33827 ft | 484 kts | 198° |
| 2026-05-06 23:49 | 23.23125 | 55.30128 | 33830 ft | 484 kts | 198° |
| 2026-05-06 23:50 | 23.16620 | 55.28219 | 33831 ft | 484 kts | 198° |
| 2026-05-06 23:50 | 23.07083 | 55.24874 | 33806 ft | 475 kts | 214° |
| 2026-05-06 23:51 | 23.04581 | 55.22569 | 33815 ft | 471 kts | 230° |
| 2026-05-06 23:51 | 23.02647 | 55.19714 | 33825 ft | 470 kts | 240° |
| 2026-05-06 23:51 | 23.01250 | 55.16510 | 33815 ft | 470 kts | 253° |
| 2026-05-06 23:51 | 23.00525 | 55.13073 | 33820 ft | 468 kts | 258° |
| 2026-05-06 23:52 | 22.99277 | 55.06161 | 33811 ft | 471 kts | 258° |
| 2026-05-06 23:52 | 22.97972 | 54.99171 | 33809 ft | 474 kts | 258° |
| 2026-05-06 23:53 | 22.96608 | 54.92171 | 33797 ft | 474 kts | 257° |
| 2026-05-06 23:53 | 22.95223 | 54.85178 | 33796 ft | 474 kts | 257° |
| 2026-05-06 23:54 | 22.93835 | 54.78198 | 33793 ft | 473 kts | 257° |
| 2026-05-06 23:54 | 22.92449 | 54.71230 | 33788 ft | 472 kts | 257° |
| 2026-05-06 23:55 | 22.91062 | 54.64269 | 33789 ft | 472 kts | 257° |
| 2026-05-06 23:55 | 22.89673 | 54.57313 | 33788 ft | 472 kts | 257° |
| 2026-05-06 23:56 | 22.88280 | 54.50358 | 33791 ft | 472 kts | 257° |
| 2026-05-06 23:56 | 22.86884 | 54.43400 | 33789 ft | 473 kts | 257° |
| 2026-05-06 23:57 | 22.85483 | 54.36435 | 33788 ft | 473 kts | 257° |
| 2026-05-06 23:57 | 22.84077 | 54.29462 | 33788 ft | 474 kts | 257° |
| 2026-05-06 23:58 | 22.82666 | 54.22479 | 33790 ft | 474 kts | 257° |
| 2026-05-06 23:58 | 22.81253 | 54.15501 | 33788 ft | 474 kts | 257° |
| 2026-05-06 23:59 | 22.79839 | 54.08532 | 33789 ft | 473 kts | 257° |
| 2026-05-06 23:59 | 22.78504 | 54.01548 | 33786 ft | 474 kts | 261° |
| 2026-05-07 00:00 | 22.78087 | 53.94422 | 33790 ft | 475 kts | 270° |
| 2026-05-07 00:00 | 22.78309 | 53.88478 | 33789 ft | 475 kts | 271° |
| 2026-05-07 00:01 | 22.78630 | 53.80123 | 33785 ft | 474 kts | 270° |
| 2026-05-07 00:01 | 22.78877 | 53.72990 | 33785 ft | 473 kts | 270° |
| 2026-05-07 00:02 | 22.79105 | 53.65919 | 33787 ft | 472 kts | 270° |
| 2026-05-07 00:02 | 22.79329 | 53.58810 | 33781 ft | 472 kts | 270° |
| 2026-05-07 00:03 | 22.79549 | 53.51701 | 33787 ft | 472 kts | 270° |
| 2026-05-07 00:03 | 22.79767 | 53.44593 | 33787 ft | 472 kts | 270° |
| 2026-05-07 00:04 | 22.79982 | 53.37478 | 33782 ft | 472 kts | 270° |
| 2026-05-07 00:04 | 22.80195 | 53.30360 | 33782 ft | 473 kts | 270° |
| 2026-05-07 00:05 | 22.80405 | 53.23235 | 33789 ft | 473 kts | 270° |
| 2026-05-07 00:05 | 22.80611 | 53.16112 | 33797 ft | 473 kts | 270° |
| 2026-05-07 00:06 | 22.80814 | 53.08987 | 33797 ft | 473 kts | 270° |
| 2026-05-07 00:06 | 22.81015 | 53.01862 | 33796 ft | 473 kts | 270° |
| 2026-05-07 00:07 | 22.81211 | 52.94744 | 33787 ft | 472 kts | 270° |
| 2026-05-07 00:07 | 22.81405 | 52.87639 | 33790 ft | 471 kts | 270° |
| 2026-05-07 00:08 | 22.81594 | 52.80550 | 33795 ft | 470 kts | 270° |
| 2026-05-07 00:08 | 22.81780 | 52.73475 | 33782 ft | 470 kts | 270° |
| 2026-05-07 00:09 | 22.81963 | 52.66395 | 33790 ft | 470 kts | 270° |
| 2026-05-07 00:09 | 22.82143 | 52.59318 | 33784 ft | 470 kts | 270° |
| 2026-05-07 00:10 | 22.82321 | 52.52225 | 33798 ft | 471 kts | 270° |
| 2026-05-07 00:10 | 22.82489 | 52.45178 | 33790 ft | 471 kts | 269° |
| 2026-05-07 00:11 | 22.82638 | 52.38077 | 33786 ft | 471 kts | 269° |
| 2026-05-07 00:11 | 22.82782 | 52.30974 | 33786 ft | 472 kts | 269° |
| 2026-05-07 00:12 | 22.82925 | 52.23871 | 33786 ft | 472 kts | 269° |
| 2026-05-07 00:12 | 22.83067 | 52.16757 | 33786 ft | 472 kts | 269° |
| 2026-05-07 00:13 | 22.83206 | 52.09653 | 33810 ft | 471 kts | 269° |
| 2026-05-07 00:13 | 22.83341 | 52.02557 | 33794 ft | 470 kts | 269° |
| 2026-05-07 00:14 | 22.83451 | 51.96669 | 33791 ft | 469 kts | 269° |
| 2026-05-07 00:14 | 22.83580 | 51.89601 | 33805 ft | 469 kts | 269° |
| 2026-05-07 00:15 | 22.83706 | 51.82535 | 33803 ft | 469 kts | 269° |
| 2026-05-07 00:15 | 22.83828 | 51.75475 | 33791 ft | 469 kts | 269° |
| 2026-05-07 00:16 | 22.83948 | 51.68405 | 33791 ft | 469 kts | 269° |
| 2026-05-07 00:16 | 22.84064 | 51.61327 | 33804 ft | 470 kts | 269° |
| 2026-05-07 00:17 | 22.84178 | 51.54242 | 33801 ft | 470 kts | 269° |
| 2026-05-07 00:17 | 22.84290 | 51.47153 | 33795 ft | 471 kts | 269° |
| 2026-05-07 00:18 | 22.84689 | 51.40059 | 33807 ft | 472 kts | 272° |
| 2026-05-07 00:18 | 22.85214 | 51.32964 | 33800 ft | 472 kts | 272° |
| 2026-05-07 00:19 | 22.85716 | 51.25858 | 33801 ft | 473 kts | 272° |
| 2026-05-07 00:19 | 22.86199 | 51.18749 | 33808 ft | 473 kts | 272° |
| 2026-05-07 00:20 | 22.86679 | 51.11640 | 33797 ft | 473 kts | 272° |
| 2026-05-07 00:20 | 22.87158 | 51.04529 | 33809 ft | 473 kts | 272° |
| 2026-05-07 00:21 | 22.87635 | 50.97422 | 33813 ft | 473 kts | 272° |
| 2026-05-07 00:21 | 22.88108 | 50.90315 | 33803 ft | 473 kts | 272° |
| 2026-05-07 00:22 | 22.88578 | 50.83207 | 33813 ft | 473 kts | 271° |
| 2026-05-07 00:22 | 22.89045 | 50.76096 | 33801 ft | 473 kts | 271° |
| 2026-05-07 00:23 | 22.89505 | 50.69038 | 33811 ft | 473 kts | 271° |
| 2026-05-07 00:23 | 22.89966 | 50.61927 | 33814 ft | 473 kts | 271° |
| 2026-05-07 00:24 | 22.90422 | 50.54822 | 33812 ft | 472 kts | 272° |
| 2026-05-07 00:24 | 22.90876 | 50.47732 | 33819 ft | 471 kts | 272° |
| 2026-05-07 00:25 | 22.91325 | 50.40654 | 33809 ft | 470 kts | 272° |
| 2026-05-07 00:25 | 22.91770 | 50.33585 | 33824 ft | 469 kts | 272° |
| 2026-05-07 00:26 | 22.92211 | 50.26522 | 33812 ft | 469 kts | 272° |
| 2026-05-07 00:26 | 22.92650 | 50.19459 | 33811 ft | 469 kts | 272° |
| 2026-05-07 00:27 | 22.93085 | 50.12398 | 33813 ft | 470 kts | 272° |
| 2026-05-07 00:27 | 22.93517 | 50.05330 | 33815 ft | 470 kts | 272° |
| 2026-05-07 00:28 | 22.93948 | 49.98251 | 33824 ft | 470 kts | 272° |
| 2026-05-07 00:28 | 22.94374 | 49.91175 | 33819 ft | 470 kts | 272° |
| 2026-05-07 00:29 | 22.94798 | 49.84101 | 33821 ft | 469 kts | 272° |
| 2026-05-07 00:30 | 22.95632 | 49.70007 | 33826 ft | 467 kts | 271° |
| 2026-05-07 00:30 | 22.96043 | 49.62976 | 33823 ft | 467 kts | 271° |
| 2026-05-07 00:31 | 22.96451 | 49.55953 | 33825 ft | 467 kts | 271° |
| 2026-05-07 00:31 | 22.96856 | 49.48922 | 33831 ft | 466 kts | 271° |
| 2026-05-07 00:32 | 22.97258 | 49.41900 | 33826 ft | 466 kts | 271° |
| 2026-05-07 00:32 | 22.97656 | 49.34884 | 33829 ft | 466 kts | 271° |
| 2026-05-07 00:33 | 22.98048 | 49.27913 | 33828 ft | 466 kts | 271° |
| 2026-05-07 00:33 | 22.98440 | 49.20894 | 33844 ft | 465 kts | 271° |
| 2026-05-07 00:34 | 22.98829 | 49.13889 | 33833 ft | 464 kts | 271° |
| 2026-05-07 00:34 | 22.99213 | 49.06902 | 33834 ft | 464 kts | 271° |
| 2026-05-07 00:35 | 22.99594 | 48.99920 | 33834 ft | 463 kts | 271° |
| 2026-05-07 00:35 | 23.00097 | 48.92953 | 33839 ft | 463 kts | 273° |
| 2026-05-07 00:36 | 23.00690 | 48.85989 | 33841 ft | 464 kts | 273° |
| 2026-05-07 00:36 | 23.01272 | 48.79017 | 33842 ft | 464 kts | 272° |
| 2026-05-07 00:37 | 23.01834 | 48.72041 | 33844 ft | 464 kts | 272° |
| 2026-05-07 00:37 | 23.02386 | 48.65063 | 33844 ft | 464 kts | 272° |
| 2026-05-07 00:38 | 23.02936 | 48.58076 | 33855 ft | 464 kts | 272° |
| 2026-05-07 00:38 | 23.03483 | 48.51099 | 33847 ft | 464 kts | 272° |
| 2026-05-07 00:39 | 23.04026 | 48.44131 | 33848 ft | 463 kts | 272° |
| 2026-05-07 00:39 | 23.04565 | 48.37175 | 33849 ft | 462 kts | 272° |
| 2026-05-07 00:40 | 23.05101 | 48.30222 | 33850 ft | 462 kts | 272° |
| 2026-05-07 00:40 | 23.05633 | 48.23273 | 33849 ft | 462 kts | 272° |
| 2026-05-07 00:41 | 23.06162 | 48.16330 | 33854 ft | 462 kts | 272° |
| 2026-05-07 00:41 | 23.06688 | 48.09381 | 33855 ft | 461 kts | 272° |
| 2026-05-07 00:42 | 23.07208 | 48.02480 | 33478 ft | 465 kts | 272° |
| 2026-05-07 00:42 | 23.07472 | 47.98925 | 32279 ft | 476 kts | 272° |
| 2026-05-07 00:42 | 23.07740 | 47.95342 | 31094 ft | 477 kts | 272° |
| 2026-05-07 00:43 | 23.08009 | 47.91758 | 30142 ft | 474 kts | 272° |
| 2026-05-07 00:43 | 23.08274 | 47.88202 | 29119 ft | 470 kts | 272° |
| 2026-05-07 00:43 | 23.08535 | 47.84682 | 28184 ft | 465 kts | 272° |
| 2026-05-07 00:43 | 23.08992 | 47.81256 | 27307 ft | 458 kts | 283° |
| 2026-05-07 00:44 | 23.10279 | 47.78091 | 26504 ft | 460 kts | 298° |
| 2026-05-07 00:44 | 23.12194 | 47.75319 | 25761 ft | 459 kts | 309° |
| 2026-05-07 00:44 | 23.14589 | 47.73044 | 24991 ft | 456 kts | 323° |
| 2026-05-07 00:44 | 23.17287 | 47.71257 | 24263 ft | 452 kts | 326° |
| 2026-05-07 00:45 | 23.19987 | 47.69514 | 23518 ft | 450 kts | 326° |
| 2026-05-07 00:45 | 23.22659 | 47.67771 | 22652 ft | 446 kts | 326° |
| 2026-05-07 00:45 | 23.25290 | 47.66027 | 21872 ft | 441 kts | 326° |
| 2026-05-07 00:45 | 23.27884 | 47.64285 | 21136 ft | 435 kts | 326° |
| 2026-05-07 00:46 | 23.30438 | 47.62556 | 20434 ft | 430 kts | 325° |
| 2026-05-07 00:46 | 23.32961 | 47.60842 | 19727 ft | 426 kts | 326° |
| 2026-05-07 00:46 | 23.35461 | 47.59141 | 19042 ft | 422 kts | 326° |
| 2026-05-07 00:46 | 23.37939 | 47.57455 | 18339 ft | 419 kts | 326° |
| 2026-05-07 00:47 | 23.40402 | 47.55781 | 17567 ft | 416 kts | 326° |
| 2026-05-07 00:47 | 23.42844 | 47.54122 | 16894 ft | 411 kts | 326° |
| 2026-05-07 00:47 | 23.45130 | 47.52337 | 16483 ft | 399 kts | 318° |
| 2026-05-07 00:47 | 23.47140 | 47.50295 | 16148 ft | 393 kts | 312° |
| 2026-05-07 00:48 | 23.48937 | 47.48056 | 16030 ft | 395 kts | 306° |
| 2026-05-07 00:48 | 23.50589 | 47.45637 | 15884 ft | 400 kts | 304° |
| 2026-05-07 00:48 | 23.52237 | 47.43183 | 15718 ft | 402 kts | 304° |
| 2026-05-07 00:48 | 23.53882 | 47.40730 | 15547 ft | 400 kts | 304° |
| 2026-05-07 00:49 | 23.55525 | 47.38283 | 15388 ft | 400 kts | 304° |
| 2026-05-07 00:49 | 23.57236 | 47.35918 | 15191 ft | 397 kts | 312° |
| 2026-05-07 00:49 | 23.59373 | 47.34003 | 15037 ft | 400 kts | 325° |
| 2026-05-07 00:49 | 23.61812 | 47.32535 | 14848 ft | 401 kts | 335° |
| 2026-05-07 00:50 | 23.64413 | 47.31392 | 14622 ft | 404 kts | 338° |
| 2026-05-07 00:50 | 23.67019 | 47.30305 | 14357 ft | 408 kts | 338° |
| 2026-05-07 00:50 | 23.69677 | 47.29207 | 14082 ft | 407 kts | 338° |
| 2026-05-07 00:50 | 23.72305 | 47.28120 | 13803 ft | 402 kts | 338° |
| 2026-05-07 00:51 | 23.74907 | 47.27036 | 13510 ft | 399 kts | 338° |
| 2026-05-07 00:51 | 23.77481 | 47.25913 | 13198 ft | 397 kts | 337° |
| 2026-05-07 00:51 | 23.80022 | 47.24749 | 12936 ft | 396 kts | 336° |
| 2026-05-07 00:51 | 23.88848 | 47.20632 | 12000 ft | 393 kts | 336° |
| 2026-05-07 00:52 | 23.98873 | 47.15997 | 11072 ft | 387 kts | 337° |
| 2026-05-07 00:52 | 24.08697 | 47.11460 | 10322 ft | 381 kts | 337° |
| 2026-05-07 00:52 | 24.18409 | 47.06968 | 9581 ft | 377 kts | 338° |
| 2026-05-07 00:52 | 24.28044 | 47.02503 | 8736 ft | 376 kts | 336° |
| 2026-05-07 00:53 | 24.42484 | 46.95827 | 7524 ft | 374 kts | 336° |
| 2026-05-07 00:53 | 24.57644 | 46.88732 | 6194 ft | 364 kts | 336° |
| 2026-05-07 00:53 | 24.59962 | 46.87655 | 5954 ft | 357 kts | 336° |
| 2026-05-07 00:53 | 24.62196 | 46.86617 | 5715 ft | 332 kts | 336° |
| 2026-05-07 00:54 | 24.64206 | 46.85683 | 5509 ft | 296 kts | 336° |
| 2026-05-07 00:54 | 24.67585 | 46.84108 | 5150 ft | 254 kts | 336° |
| 2026-05-07 00:54 | 24.70480 | 46.82753 | 4967 ft | 253 kts | 336° |
| 2026-05-07 00:54 | 24.72077 | 46.82006 | 4823 ft | 246 kts | 336° |
| 2026-05-07 00:55 | 24.73634 | 46.81277 | 4670 ft | 240 kts | 336° |
| 2026-05-07 00:55 | 24.75159 | 46.80563 | 4515 ft | 237 kts | 336° |
| 2026-05-07 00:55 | 24.76668 | 46.79858 | 4381 ft | 234 kts | 336° |
| 2026-05-07 00:55 | 24.78152 | 46.79166 | 4227 ft | 229 kts | 338° |
| 2026-05-07 00:56 | 24.79576 | 46.78485 | 4153 ft | 217 kts | 336° |
| 2026-05-07 00:56 | 24.80898 | 46.77741 | 4000 ft | 209 kts | 332° |
| 2026-05-07 00:56 | 24.82111 | 46.76982 | 3878 ft | 190 kts | 331° |
| 2026-05-07 00:56 | 24.83220 | 46.76275 | 3726 ft | 181 kts | 332° |
| 2026-05-07 00:57 | 24.84300 | 46.75592 | 3623 ft | 176 kts | 333° |
| 2026-05-07 00:57 | 24.85362 | 46.74920 | 3584 ft | 178 kts | 333° |
| 2026-05-07 00:57 | 24.86432 | 46.74243 | 3526 ft | 172 kts | 332° |
| 2026-05-07 00:57 | 24.87402 | 46.73625 | 3475 ft | 151 kts | 333° |
| 2026-05-07 00:58 | 24.88281 | 46.73068 | 3260 ft | 141 kts | 333° |
| 2026-05-07 00:58 | 24.89099 | 46.72549 | 3127 ft | 136 kts | 333° |
| 2026-05-07 00:58 | 24.89933 | 46.72022 | 2939 ft | 139 kts | 333° |
| 2026-05-07 00:58 | 24.90765 | 46.71494 | 2772 ft | 136 kts | 334° |
| 2026-05-07 00:59 | 24.92372 | 46.70484 | 2349 ft | 128 kts | 333° |
| 2026-05-07 00:59 | 24.93133 | 46.69994 | 2212 ft | 128 kts | 333° |
| 2026-05-07 00:59 | 24.93914 | 46.69498 | 2086 ft | 131 kts | 332° |
| 2026-05-07 01:00 | 24.94671 | 46.69021 | 2043 ft | 111 kts | 330° |
| 2026-05-07 01:00 | 24.95183 | 46.68698 | 2039 ft | 58 kts | 330° |
| 2026-05-07 01:00 | 24.95494 | 46.68503 | 2042 ft | 50 kts | 330° |
| 2026-05-07 01:00 | 24.95709 | 46.68374 | 2040 ft | 28 kts | 341° |
| 2026-05-07 01:01 | 24.95902 | 46.68347 | 2036 ft | 28 kts | 8° |
| 2026-05-07 01:01 | 24.96030 | 46.68470 | 2039 ft | 22 kts | 88° |
| 2026-05-07 01:01 | 24.95919 | 46.68576 | 2043 ft | 22 kts | 150° |
| 2026-05-07 01:01 | 24.95786 | 46.68661 | 2041 ft | 22 kts | 150° |
| 2026-05-07 01:02 | 24.95652 | 46.68745 | 2044 ft | 22 kts | 150° |
| 2026-05-07 01:02 | 24.95566 | 46.68864 | 2044 ft | 22 kts | 76° |
| 2026-05-07 01:02 | 24.95614 | 46.68967 | 2044 ft | 22 kts | 60° |
| 2026-05-07 01:02 | 24.95669 | 46.69072 | 2041 ft | 15 kts | 60° |
| 2026-05-07 01:03 | 24.95720 | 46.69169 | 2042 ft | 15 kts | 59° |
| 2026-05-07 01:03 | 24.95720 | 46.69278 | 2039 ft | 15 kts | 103° |
| 2026-05-07 01:03 | 24.95696 | 46.69390 | 2039 ft | 15 kts | 85° |
| 2026-05-07 01:03 | 24.95781 | 46.69435 | 2041 ft | 15 kts | 343° |
| 2026-05-07 01:04 | 24.95870 | 46.69430 | 2039 ft | 11 kts | 47° |
| 2026-05-07 01:04 | 24.95888 | 46.69458 | 2039 ft | 1 kts | 58° |
| 2026-05-07 01:04 | 24.95895 | 46.69469 | 2041 ft | 3 kts | 58° |
| 2026-05-07 01:04 | 24.95896 | 46.69472 | 2041 ft | 0 kts | 60° |
| 2026-05-07 01:06 | 24.87995 | 46.73249 | 3329 ft | 144 kts | 333° |
| 2026-05-07 01:06 | 24.88904 | 46.72673 | 3153 ft | 136 kts | 333° |
| 2026-05-07 01:06 | 24.89936 | 46.72019 | 2937 ft | 139 kts | 333° |
| 2026-05-07 01:06 | 24.90887 | 46.71417 | 2754 ft | 136 kts | 335° |
| 2026-05-07 01:07 | 24.91834 | 46.70823 | 2510 ft | 133 kts | 334° |
| 2026-05-07 01:07 | 24.92800 | 46.70205 | 2260 ft | 126 kts | 333° |
| 2026-05-07 01:07 | 24.93779 | 46.69584 | 2117 ft | 131 kts | 332° |
| 2026-05-07 01:07 | 24.94721 | 46.68990 | 2044 ft | 107 kts | 330° |
| 2026-05-07 01:08 | 24.93801 | 46.69570 | 2111 ft | 131 kts | 332° |
| 2026-05-07 01:08 | 24.94715 | 46.68993 | 2037 ft | 108 kts | 330° |
| 2026-05-07 01:08 | 24.88364 | 46.73016 | 3237 ft | 140 kts | 333° |
| 2026-05-07 01:08 | 24.89283 | 46.72432 | 3083 ft | 138 kts | 333° |
| 2026-05-07 01:09 | 24.90138 | 46.71892 | 2902 ft | 139 kts | 333° |
| 2026-05-07 01:09 | 24.90990 | 46.71352 | 2735 ft | 135 kts | 334° |
| 2026-05-07 01:09 | 24.91816 | 46.70834 | 2511 ft | 133 kts | 334° |
| 2026-05-07 01:09 | 24.92595 | 46.70339 | 2308 ft | 126 kts | 332° |
| 2026-05-07 01:10 | 24.93366 | 46.69846 | 2190 ft | 129 kts | 332° |
| 2026-05-07 01:10 | 24.94165 | 46.69339 | 2051 ft | 130 kts | 332° |
| 2026-05-07 01:10 | 24.94868 | 46.68897 | 2038 ft | 94 kts | 330° |
| 2026-05-07 01:10 | 24.93629 | 46.69679 | 2142 ft | 130 kts | 332° |
| 2026-05-07 01:11 | 24.94399 | 46.69194 | 2045 ft | 125 kts | 332° |
| 2026-05-07 01:11 | 24.96027 | 46.68449 | 2043 ft | 23 kts | 71° |
| 2026-05-07 01:11 | 24.93188 | 46.69959 | 2208 ft | 128 kts | 332° |
| 2026-05-07 01:11 | 24.90820 | 46.71460 | 2762 ft | 136 kts | 334° |
| 2026-05-07 01:12 | 24.87897 | 46.73311 | 3351 ft | 146 kts | 333° |
| 2026-05-07 01:12 | 24.95329 | 46.68606 | 2041 ft | 0 kts | 330° |